Hauptseite
METAR-TAF:

METAR-TAF

Flughäfen :

Celle, Deutschland

Heeresflugplatz Celle

Breite: 52-36N, Länge: 010-01E, Höhe: 39 m

Beobachtung

Neuester Wetterbericht von vor 48 Minuten, um 10:20 UTC
Wind 11 kt aus Süd/Südost
Temperatur 11°C
Luftfeuchtigkeit 62%
Luftdruck 1003 hPa
Sichtweite 10 km oder mehr
Leicht bewölkt in der Höhe von 2800 ft
Durchbrochene Bewölkung in der Höhe von 4600 ft

METAR: ETHC 271020Z 16011KT 9999 FEW028 BKN046 11/04 Q1003 BLU BLU

Zeit: 12:08 (11:08 UTC)

Prognose

Neuester Wetterbericht von vor 2 Stunden und 55 Minuten, um 08:13 UTC
Gültige Prognose vom 27 um 09 UTC bis 27 um 18 UTC
Wind 12 kt aus Süd
Sichtweite 10 km oder mehr
Leicht bewölkt in der Höhe von 3000 ft
Durchbrochene Bewölkung in der Höhe von 4500 ft

TAF: ETHC 270813Z 2709/2718 19012KT 9999 NSW FEW030 BKN045

Wetterbeobachtungen und Prognosen von mehr als 4000 Flughäfen (METAR und TAF Bericht).

Die verfügbaren Stationen werden durch gelbe und rote Markierungen auf der Karte dargestellt.

Führen Sie die Maus auf sie, um den Namen der Station zu sehen.

Darauf klicken, um die Beobachtung von Wetterbeobachtungen und Prognosen zu sehen.

Um die Karte zu ändern : klicken Sie auf den grünen Tasten mit einem schwarzen Kreuz Zum Vergrößern, auf den grünen Button mit einem Gedankenstrich zu verkleinern, oder auf die grünen Pfeile für benachbarte Karten.


METAR-TAF: